Medallion — V7KM6 — position and weather

sailwx.info

Track history (hours):
 
Tides and Currents Weather Stations Pressure Air Temp Water Temp Dewpoint Dewpoint Depression Visibility Wind Speed Wind Dir Waves Ship Positions

Medallion

Last reported at 2014-Jul-27 19:33 UTC. Time now 2014-Jul-31 13:37 UTC.
Position N 41°30' W 070°55'.

Length 20 m; draft 2.2 m.

Type: Pleasure craft. MMSI: 538070246.

Date/timePositionNaut miles runAvg speedWind from/ knotsBaromVisibWave heightAir tempDewpointWater temp
2014-Jul-27 19:33N 41°30' W 070°55'8 8.1
2014-Jul-27 18:32N 41°27' W 071°05'8 8.5
2014-Jul-27 17:33N 41°26' W 071°16'3 3.5
2014-Jul-27 16:34N 41°29' W 071°19'0 0.1
2014-Jul-27 15:21N 41°29' W 071°19'0 0.0
2014-Jul-27 14:33N 41°29' W 071°19'0 0.0
2014-Jul-27 13:33N 41°29' W 071°19'0 0.0
2014-Jul-27 12:33N 41°29' W 071°19'0 0.0
2014-Jul-27 11:32N 41°29' W 071°19'0 0.0
2014-Jul-27 10:29N 41°29' W 071°19'0 0.0
2014-Jul-27 09:18N 41°29' W 071°19'0 0.0
2014-Jul-27 08:31N 41°29' W 071°19'0 0.0
2014-Jul-27 07:31N 41°29' W 071°19'0 0.0
2014-Jul-27 06:28N 41°29' W 071°19'0 0.0
2014-Jul-27 05:32N 41°29' W 071°19'0 0.0
2014-Jul-27 04:34N 41°29' W 071°19'0 0.0
2014-Jul-27 03:33N 41°29' W 071°19'0 0.0
2014-Jul-27 02:33N 41°29' W 071°19'0 0.0
2014-Jul-27 01:34N 41°29' W 071°19'0 0.0
2014-Jul-27 00:33N 41°29' W 071°19'0 0.0
2014-Jul-26 23:33N 41°29' W 071°19'0 0.0
2014-Jul-26 22:34N 41°29' W 071°19'0 0.0
2014-Jul-26 21:33N 41°29' W 071°19'0 0.0
2014-Jul-26 20:33N 41°29' W 071°19'0 0.0
2014-Jul-26 19:34N 41°29' W 071°19'0 0.0
2014-Jul-26 18:33N 41°29' W 071°19'0 0.0
2014-Jul-26 17:34N 41°29' W 071°19'0 0.0
2014-Jul-26 16:33N 41°29' W 071°19'0 0.0
2014-Jul-26 15:33N 41°29' W 071°19'0 0.0
2014-Jul-26 14:34N 41°29' W 071°19'0 0.0
2014-Jul-26 13:33N 41°29' W 071°19'0 0.0
2014-Jul-26 12:33N 41°29' W 071°19'0 0.0
2014-Jul-26 11:33N 41°29' W 071°19'0 0.0
2014-Jul-26 10:32N 41°29' W 071°19'0 0.0
2014-Jul-26 09:33N 41°29' W 071°19'0 0.0
2014-Jul-26 08:34N 41°29' W 071°19'0 0.0
2014-Jul-26 07:33N 41°29' W 071°19'0 0.0
2014-Jul-26 06:33N 41°29' W 071°19'0 0.0
2014-Jul-26 05:33N 41°29' W 071°19'0 0.0
2014-Jul-26 04:33N 41°29' W 071°19'0 0.0
2014-Jul-26 03:33N 41°29' W 071°19'0 0.0
2014-Jul-26 02:34N 41°29' W 071°19'0 0.0
2014-Jul-26 01:34N 41°29' W 071°19'0 0.0
2014-Jul-26 00:34N 41°29' W 071°19'0 0.0
2014-Jul-25 23:33N 41°29' W 071°19'0 0.0
2014-Jul-25 22:34N 41°29' W 071°19'0 0.0
2014-Jul-25 21:33N 41°29' W 071°19'0 0.0
2014-Jul-25 20:34N 41°29' W 071°19'0 0.0
2014-Jul-25 19:33N 41°29' W 071°19'0 0.0
2014-Jul-25 18:33N 41°29' W 071°19'0 0.0
2014-Jul-25 17:33N 41°29' W 071°19'0 0.0
2014-Jul-25 16:32N 41°29' W 071°19'0 0.0
2014-Jul-25 15:32N 41°29' W 071°19'0 0.0
2014-Jul-25 14:32N 41°29' W 071°19'0 0.0
2014-Jul-25 13:32N 41°29' W 071°19'0 0.0
2014-Jul-25 12:33N 41°29' W 071°19'0 0.0
2014-Jul-25 11:33N 41°29' W 071°19'0 0.0
2014-Jul-25 10:34N 41°29' W 071°19'0 0.0
2014-Jul-25 09:33N 41°29' W 071°19'0 0.0
2014-Jul-25 08:34N 41°29' W 071°19'0 0.0
2014-Jul-25 07:33N 41°29' W 071°19'0 0.0
2014-Jul-25 06:34N 41°29' W 071°19'0 0.0
2014-Jul-25 05:34N 41°29' W 071°19'0 0.0
2014-Jul-25 04:33N 41°29' W 071°19'0 0.0
2014-Jul-25 03:30N 41°29' W 071°19'0 0.0
2014-Jul-25 02:34N 41°29' W 071°19'0 0.0
2014-Jul-25 01:34N 41°29' W 071°19'0 0.0
2014-Jul-25 00:33N 41°29' W 071°19'0 0.0
2014-Jul-24 23:34N 41°29' W 071°19'0 0.0
2014-Jul-24 22:33N 41°29' W 071°19'0 0.0
2014-Jul-24 21:34N 41°29' W 071°19'0 0.0
2014-Jul-24 20:30N 41°29' W 071°19'0 0.0
2014-Jul-24 19:33N 41°29' W 071°19'0 0.0
2014-Jul-24 18:33N 41°29' W 071°19'3 2.8
2014-Jul-24 17:33N 41°28' W 071°22'8 8.5
2014-Jul-24 16:33N 41°21' W 071°29'9 9.1
2014-Jul-24 15:34N 41°18' W 071°41'9 8.8
2014-Jul-24 14:34N 41°14' W 071°51'8 8.5
2014-Jul-24 13:34N 41°11' W 072°02'8 8.2
2014-Jul-24 12:34N 41°07' W 072°11'7 7.4
2014-Jul-24 11:34N 41°01' W 072°17'1 0.8
2014-Jul-24 10:32N 41°00' W 072°18'0 0.0
2014-Jul-24 09:33N 41°00' W 072°18'0 0.0
2014-Jul-24 08:33N 41°00' W 072°18'0 0.0
2014-Jul-24 07:31N 41°00' W 072°18'0 0.0
2014-Jul-24 06:32N 41°00' W 072°18'0 0.0
2014-Jul-24 05:32N 41°00' W 072°18'0 0.0
2014-Jul-24 04:33N 41°00' W 072°18'0 0.0
2014-Jul-24 03:31N 41°00' W 072°18'0 0.0
2014-Jul-24 02:31N 41°00' W 072°18'0 0.0
2014-Jul-24 01:32N 41°00' W 072°18'0 0.0
2014-Jul-24 00:33N 41°00' W 072°18'0 0.0
2014-Jul-23 23:33N 41°00' W 072°18'0 0.0
2014-Jul-23 22:31N 41°00' W 072°18'0 0.0
2014-Jul-23 21:32N 41°00' W 072°18'0 0.0
2014-Jul-23 20:32N 41°00' W 072°18'0 0.0
2014-Jul-23 19:33N 41°00' W 072°18'0 0.0
2014-Jul-23 18:31N 41°00' W 072°18'0 0.0
2014-Jul-23 17:31N 41°00' W 072°18'0 0.0
2014-Jul-23 16:32N 41°00' W 072°18'0 0.0
2014-Jul-23 15:33N 41°00' W 072°18'0 0.0
2014-Jul-23 14:33N 41°00' W 072°18'0 0.0
2014-Jul-23 13:31N 41°00' W 072°18'0 0.0
2014-Jul-23 12:32N 41°00' W 072°18'0 0.0
2014-Jul-23 11:32N 41°00' W 072°18'0 0.0
2014-Jul-23 10:33N 41°00' W 072°18'0 0.0
2014-Jul-23 09:31N 41°00' W 072°18'0 0.0
2014-Jul-23 08:31N 41°00' W 072°18'0 0.0
2014-Jul-23 07:32N 41°00' W 072°18'0 0.0
2014-Jul-23 06:33N 41°00' W 072°18'0 0.0
2014-Jul-23 05:33N 41°00' W 072°18'0 0.0
2014-Jul-23 04:31N 41°00' W 072°18'0 0.0
2014-Jul-23 03:32N 41°00' W 072°18'0 0.0
2014-Jul-23 02:33N 41°00' W 072°18'0 0.0
2014-Jul-23 01:33N 41°00' W 072°18'0 0.0
2014-Jul-23 00:31N 41°00' W 072°18'0 0.0
2014-Jul-22 23:33N 41°00' W 072°18'0 0.0
2014-Jul-22 22:34N 41°00' W 072°18'0 0.0
2014-Jul-22 21:33N 41°00' W 072°18'0 0.0
2014-Jul-22 20:33N 41°00' W 072°18'0 0.0
2014-Jul-22 19:33N 41°00' W 072°18'0 0.0
2014-Jul-22 18:33N 41°00' W 072°18'4 3.9
2014-Jul-22 17:33N 41°02' W 072°22'4 3.8
2014-Jul-22 16:33N 41°06' W 072°22'0 0.0
2014-Jul-22 15:27N 41°06' W 072°22'0 0.0
2014-Jul-22 14:33N 41°06' W 072°22'0 0.0
2014-Jul-22 13:31N 41°06' W 072°22'0 0.0
2014-Jul-22 12:32N 41°06' W 072°22'0 0.0
2014-Jul-22 11:32N 41°06' W 072°22'0 0.0
2014-Jul-22 10:33N 41°06' W 072°22'0 0.0
2014-Jul-22 09:31N 41°06' W 072°22'0 0.0
2014-Jul-22 08:31N 41°06' W 072°22'0 0.0
2014-Jul-22 07:32N 41°06' W 072°22'0 0.0
2014-Jul-22 06:33N 41°06' W 072°22'0 0.0
2014-Jul-22 05:33N 41°06' W 072°22'0 0.0
2014-Jul-22 04:31N 41°06' W 072°22'0 0.0
2014-Jul-22 03:32N 41°06' W 072°22'0 0.0
2014-Jul-22 02:32N 41°06' W 072°22'0 0.0
2014-Jul-22 01:33N 41°06' W 072°22'0 0.0
2014-Jul-22 00:31N 41°06' W 072°22'0 0.0
2014-Jul-21 23:31N 41°06' W 072°22'0 0.0
2014-Jul-21 22:32N 41°06' W 072°22'0 0.0
2014-Jul-21 21:33N 41°06' W 072°22'0 0.0
2014-Jul-21 20:33N 41°06' W 072°22'0 0.0
2014-Jul-21 20:16N 41°06' W 072°22'0 0.0
2014-Jul-21 19:31N 41°06' W 072°22'0 0.0
2014-Jul-21 18:32N 41°06' W 072°22'0 0.0
2014-Jul-21 17:32N 41°06' W 072°22'0 0.0
2014-Jul-21 16:33N 41°06' W 072°22'0 0.0
2014-Jul-21 15:31N 41°06' W 072°22'0 0.0
2014-Jul-21 14:31N 41°06' W 072°22'  
2014-Jul-18 17:33N 41°06' W 072°22'0 0.0
2014-Jul-18 16:33N 41°06' W 072°22'0 0.0
2014-Jul-18 15:31N 41°06' W 072°22'0 0.0
2014-Jul-18 14:32N 41°06' W 072°22'0 0.0
2014-Jul-18 13:32N 41°06' W 072°22'0 0.0
2014-Jul-18 12:33N 41°06' W 072°22'0 0.0
2014-Jul-18 11:31N 41°06' W 072°22'0 0.0
2014-Jul-18 10:29N 41°06' W 072°22'0 0.0
2014-Jul-18 09:32N 41°06' W 072°22'0 0.0
2014-Jul-18 08:33N 41°06' W 072°22'0 0.0
2014-Jul-18 07:33N 41°06' W 072°22'0 0.0
2014-Jul-18 06:31N 41°06' W 072°22'0 0.0
2014-Jul-18 05:32N 41°06' W 072°22'0 0.0
2014-Jul-18 04:33N 41°06' W 072°22'0 0.0
2014-Jul-18 03:33N 41°06' W 072°22'0 0.0
2014-Jul-18 02:31N 41°06' W 072°22'0 0.0
2014-Jul-18 01:32N 41°06' W 072°22'0 0.0
2014-Jul-18 00:32N 41°06' W 072°22'0 0.0
2014-Jul-17 23:33N 41°06' W 072°22'0 0.0
2014-Jul-17 22:31N 41°06' W 072°22'0 0.0
2014-Jul-17 21:31N 41°06' W 072°22'0 0.0
2014-Jul-17 20:32N 41°06' W 072°22'  
Track history (hours):
 
Tides and Currents Weather Stations Pressure Air Temp Water Temp Dewpoint Dewpoint Depression Visibility Wind Speed Wind Dir Waves Ship Positions

Medallion

Last reported at 2014-Jul-27 19:33 UTC. Time now 2014-Jul-31 13:37 UTC.
Position N 41°30' W 070°55'.

Length 20 m; draft 2.2 m.

Type: Pleasure craft. MMSI: 538070246.

Date/timePositionNaut miles runAvg speedWind from/ knotsBaromVisibWave heightAir tempDewpointWater temp
2014-Jul-27 19:33N 41°30' W 070°55'8 8.1
2014-Jul-27 18:32N 41°27' W 071°05'8 8.5
2014-Jul-27 17:33N 41°26' W 071°16'3 3.5
2014-Jul-27 16:34N 41°29' W 071°19'0 0.1
2014-Jul-27 15:21N 41°29' W 071°19'0 0.0
2014-Jul-27 14:33N 41°29' W 071°19'0 0.0
2014-Jul-27 13:33N 41°29' W 071°19'0 0.0
2014-Jul-27 12:33N 41°29' W 071°19'0 0.0
2014-Jul-27 11:32N 41°29' W 071°19'0 0.0
2014-Jul-27 10:29N 41°29' W 071°19'0 0.0
2014-Jul-27 09:18N 41°29' W 071°19'0 0.0
2014-Jul-27 08:31N 41°29' W 071°19'0 0.0
2014-Jul-27 07:31N 41°29' W 071°19'0 0.0
2014-Jul-27 06:28N 41°29' W 071°19'0 0.0
2014-Jul-27 05:32N 41°29' W 071°19'0 0.0
2014-Jul-27 04:34N 41°29' W 071°19'0 0.0
2014-Jul-27 03:33N 41°29' W 071°19'0 0.0
2014-Jul-27 02:33N 41°29' W 071°19'0 0.0
2014-Jul-27 01:34N 41°29' W 071°19'0 0.0
2014-Jul-27 00:33N 41°29' W 071°19'0 0.0
2014-Jul-26 23:33N 41°29' W 071°19'0 0.0
2014-Jul-26 22:34N 41°29' W 071°19'0 0.0
2014-Jul-26 21:33N 41°29' W 071°19'0 0.0
2014-Jul-26 20:33N 41°29' W 071°19'0 0.0
2014-Jul-26 19:34N 41°29' W 071°19'0 0.0
2014-Jul-26 18:33N 41°29' W 071°19'0 0.0
2014-Jul-26 17:34N 41°29' W 071°19'0 0.0
2014-Jul-26 16:33N 41°29' W 071°19'0 0.0
2014-Jul-26 15:33N 41°29' W 071°19'0 0.0
2014-Jul-26 14:34N 41°29' W 071°19'0 0.0
2014-Jul-26 13:33N 41°29' W 071°19'0 0.0
2014-Jul-26 12:33N 41°29' W 071°19'0 0.0
2014-Jul-26 11:33N 41°29' W 071°19'0 0.0
2014-Jul-26 10:32N 41°29' W 071°19'0 0.0
2014-Jul-26 09:33N 41°29' W 071°19'0 0.0
2014-Jul-26 08:34N 41°29' W 071°19'0 0.0
2014-Jul-26 07:33N 41°29' W 071°19'0 0.0
2014-Jul-26 06:33N 41°29' W 071°19'0 0.0
2014-Jul-26 05:33N 41°29' W 071°19'0 0.0
2014-Jul-26 04:33N 41°29' W 071°19'0 0.0
2014-Jul-26 03:33N 41°29' W 071°19'0 0.0
2014-Jul-26 02:34N 41°29' W 071°19'0 0.0
2014-Jul-26 01:34N 41°29' W 071°19'0 0.0
2014-Jul-26 00:34N 41°29' W 071°19'0 0.0
2014-Jul-25 23:33N 41°29' W 071°19'0 0.0
2014-Jul-25 22:34N 41°29' W 071°19'0 0.0
2014-Jul-25 21:33N 41°29' W 071°19'0 0.0
2014-Jul-25 20:34N 41°29' W 071°19'0 0.0
2014-Jul-25 19:33N 41°29' W 071°19'0 0.0
2014-Jul-25 18:33N 41°29' W 071°19'0 0.0
2014-Jul-25 17:33N 41°29' W 071°19'0 0.0
2014-Jul-25 16:32N 41°29' W 071°19'0 0.0
2014-Jul-25 15:32N 41°29' W 071°19'0 0.0
2014-Jul-25 14:32N 41°29' W 071°19'0 0.0
2014-Jul-25 13:32N 41°29' W 071°19'0 0.0
2014-Jul-25 12:33N 41°29' W 071°19'0 0.0
2014-Jul-25 11:33N 41°29' W 071°19'0 0.0
2014-Jul-25 10:34N 41°29' W 071°19'0 0.0
2014-Jul-25 09:33N 41°29' W 071°19'0 0.0
2014-Jul-25 08:34N 41°29' W 071°19'0 0.0
2014-Jul-25 07:33N 41°29' W 071°19'0 0.0
2014-Jul-25 06:34N 41°29' W 071°19'0 0.0
2014-Jul-25 05:34N 41°29' W 071°19'0 0.0
2014-Jul-25 04:33N 41°29' W 071°19'0 0.0
2014-Jul-25 03:30N 41°29' W 071°19'0 0.0
2014-Jul-25 02:34N 41°29' W 071°19'0 0.0
2014-Jul-25 01:34N 41°29' W 071°19'0 0.0
2014-Jul-25 00:33N 41°29' W 071°19'0 0.0
2014-Jul-24 23:34N 41°29' W 071°19'0 0.0
2014-Jul-24 22:33N 41°29' W 071°19'0 0.0
2014-Jul-24 21:34N 41°29' W 071°19'0 0.0
2014-Jul-24 20:30N 41°29' W 071°19'0 0.0
2014-Jul-24 19:33N 41°29' W 071°19'0 0.0
2014-Jul-24 18:33N 41°29' W 071°19'3 2.8
2014-Jul-24 17:33N 41°28' W 071°22'8 8.5
2014-Jul-24 16:33N 41°21' W 071°29'9 9.1
2014-Jul-24 15:34N 41°18' W 071°41'9 8.8
2014-Jul-24 14:34N 41°14' W 071°51'8 8.5
2014-Jul-24 13:34N 41°11' W 072°02'8 8.2
2014-Jul-24 12:34N 41°07' W 072°11'7 7.4
2014-Jul-24 11:34N 41°01' W 072°17'1 0.8
2014-Jul-24 10:32N 41°00' W 072°18'0 0.0
2014-Jul-24 09:33N 41°00' W 072°18'0 0.0
2014-Jul-24 08:33N 41°00' W 072°18'0 0.0
2014-Jul-24 07:31N 41°00' W 072°18'0 0.0
2014-Jul-24 06:32N 41°00' W 072°18'0 0.0
2014-Jul-24 05:32N 41°00' W 072°18'0 0.0
2014-Jul-24 04:33N 41°00' W 072°18'0 0.0
2014-Jul-24 03:31N 41°00' W 072°18'0 0.0
2014-Jul-24 02:31N 41°00' W 072°18'0 0.0
2014-Jul-24 01:32N 41°00' W 072°18'0 0.0
2014-Jul-24 00:33N 41°00' W 072°18'0 0.0
2014-Jul-23 23:33N 41°00' W 072°18'0 0.0
2014-Jul-23 22:31N 41°00' W 072°18'0 0.0
2014-Jul-23 21:32N 41°00' W 072°18'0 0.0
2014-Jul-23 20:32N 41°00' W 072°18'0 0.0
2014-Jul-23 19:33N 41°00' W 072°18'0 0.0
2014-Jul-23 18:31N 41°00' W 072°18'0 0.0
2014-Jul-23 17:31N 41°00' W 072°18'0 0.0
2014-Jul-23 16:32N 41°00' W 072°18'0 0.0
2014-Jul-23 15:33N 41°00' W 072°18'0 0.0
2014-Jul-23 14:33N 41°00' W 072°18'0 0.0
2014-Jul-23 13:31N 41°00' W 072°18'0 0.0
2014-Jul-23 12:32N 41°00' W 072°18'0 0.0
2014-Jul-23 11:32N 41°00' W 072°18'0 0.0
2014-Jul-23 10:33N 41°00' W 072°18'0 0.0
2014-Jul-23 09:31N 41°00' W 072°18'0 0.0
2014-Jul-23 08:31N 41°00' W 072°18'0 0.0
2014-Jul-23 07:32N 41°00' W 072°18'0 0.0
2014-Jul-23 06:33N 41°00' W 072°18'0 0.0
2014-Jul-23 05:33N 41°00' W 072°18'0 0.0
2014-Jul-23 04:31N 41°00' W 072°18'0 0.0
2014-Jul-23 03:32N 41°00' W 072°18'0 0.0
2014-Jul-23 02:33N 41°00' W 072°18'0 0.0
2014-Jul-23 01:33N 41°00' W 072°18'0 0.0
2014-Jul-23 00:31N 41°00' W 072°18'0 0.0
2014-Jul-22 23:33N 41°00' W 072°18'0 0.0
2014-Jul-22 22:34N 41°00' W 072°18'0 0.0
2014-Jul-22 21:33N 41°00' W 072°18'0 0.0
2014-Jul-22 20:33N 41°00' W 072°18'0 0.0
2014-Jul-22 19:33N 41°00' W 072°18'0 0.0
2014-Jul-22 18:33N 41°00' W 072°18'4 3.9
2014-Jul-22 17:33N 41°02' W 072°22'4 3.8
2014-Jul-22 16:33N 41°06' W 072°22'0 0.0
2014-Jul-22 15:27N 41°06' W 072°22'0 0.0
2014-Jul-22 14:33N 41°06' W 072°22'0 0.0
2014-Jul-22 13:31N 41°06' W 072°22'0 0.0
2014-Jul-22 12:32N 41°06' W 072°22'0 0.0
2014-Jul-22 11:32N 41°06' W 072°22'0 0.0
2014-Jul-22 10:33N 41°06' W 072°22'0 0.0
2014-Jul-22 09:31N 41°06' W 072°22'0 0.0
2014-Jul-22 08:31N 41°06' W 072°22'0 0.0
2014-Jul-22 07:32N 41°06' W 072°22'0 0.0
2014-Jul-22 06:33N 41°06' W 072°22'0 0.0
2014-Jul-22 05:33N 41°06' W 072°22'0 0.0
2014-Jul-22 04:31N 41°06' W 072°22'0 0.0
2014-Jul-22 03:32N 41°06' W 072°22'0 0.0
2014-Jul-22 02:32N 41°06' W 072°22'0 0.0
2014-Jul-22 01:33N 41°06' W 072°22'0 0.0
2014-Jul-22 00:31N 41°06' W 072°22'0 0.0
2014-Jul-21 23:31N 41°06' W 072°22'0 0.0
2014-Jul-21 22:32N 41°06' W 072°22'0 0.0
2014-Jul-21 21:33N 41°06' W 072°22'0 0.0
2014-Jul-21 20:33N 41°06' W 072°22'0 0.0
2014-Jul-21 20:16N 41°06' W 072°22'0 0.0
2014-Jul-21 19:31N 41°06' W 072°22'0 0.0
2014-Jul-21 18:32N 41°06' W 072°22'0 0.0
2014-Jul-21 17:32N 41°06' W 072°22'0 0.0
2014-Jul-21 16:33N 41°06' W 072°22'0 0.0
2014-Jul-21 15:31N 41°06' W 072°22'0 0.0
2014-Jul-21 14:31N 41°06' W 072°22'  
2014-Jul-18 17:33N 41°06' W 072°22'0 0.0
2014-Jul-18 16:33N 41°06' W 072°22'0 0.0
2014-Jul-18 15:31N 41°06' W 072°22'0 0.0
2014-Jul-18 14:32N 41°06' W 072°22'0 0.0
2014-Jul-18 13:32N 41°06' W 072°22'0 0.0
2014-Jul-18 12:33N 41°06' W 072°22'0 0.0
2014-Jul-18 11:31N 41°06' W 072°22'0 0.0
2014-Jul-18 10:29N 41°06' W 072°22'0 0.0
2014-Jul-18 09:32N 41°06' W 072°22'0 0.0
2014-Jul-18 08:33N 41°06' W 072°22'0 0.0
2014-Jul-18 07:33N 41°06' W 072°22'0 0.0
2014-Jul-18 06:31N 41°06' W 072°22'0 0.0
2014-Jul-18 05:32N 41°06' W 072°22'0 0.0
2014-Jul-18 04:33N 41°06' W 072°22'0 0.0
2014-Jul-18 03:33N 41°06' W 072°22'0 0.0
2014-Jul-18 02:31N 41°06' W 072°22'0 0.0
2014-Jul-18 01:32N 41°06' W 072°22'0 0.0
2014-Jul-18 00:32N 41°06' W 072°22'0 0.0
2014-Jul-17 23:33N 41°06' W 072°22'0 0.0
2014-Jul-17 22:31N 41°06' W 072°22'0 0.0
2014-Jul-17 21:31N 41°06' W 072°22'0 0.0
2014-Jul-17 20:32N 41°06' W 072°22'  

Dump ship's entire track history